createdAt,value
2022-10-03T06:15:02.995Z,10.20
2022-10-03T06:25:02.891Z,10.77
2022-10-03T06:35:02.853Z,10.83
2022-10-03T06:45:03.164Z,10.33
2022-10-03T06:55:02.933Z,10.31
2022-10-03T07:05:02.908Z,10.45
2022-10-03T07:15:02.848Z,10.71
2022-10-03T07:25:02.929Z,11.25
2022-10-03T07:35:02.856Z,11.85
2022-10-03T07:45:02.997Z,12.19
2022-10-03T07:55:02.888Z,12.58
2022-10-03T08:05:02.898Z,13.05
2022-10-03T08:15:03.089Z,13.26
2022-10-03T08:25:03.325Z,13.22
2022-10-03T08:35:03.048Z,13.15
2022-10-03T08:45:03.052Z,13.80
2022-10-03T08:55:03.423Z,14.41
2022-10-03T09:05:03.168Z,14.16
2022-10-03T09:15:03.159Z,14.12
2022-10-03T09:25:03.066Z,14.13
2022-10-03T09:35:07.077Z,14.08
2022-10-03T09:45:03.140Z,14.63
2022-10-03T09:55:03.203Z,14.35
2022-10-03T10:05:03.386Z,12.93
2022-10-03T10:15:03.190Z,12.93
2022-10-03T10:25:03.102Z,12.83
2022-10-03T10:35:03.248Z,14.07
2022-10-03T10:45:03.145Z,14.90
2022-10-03T10:55:03.269Z,15.59
2022-10-03T11:05:03.298Z,14.96
2022-10-03T11:15:03.356Z,15.36
2022-10-03T11:25:03.296Z,15.47
2022-10-03T11:35:03.354Z,15.65
2022-10-03T11:45:03.288Z,15.49
2022-10-03T11:55:03.289Z,15.48
2022-10-03T12:05:03.289Z,15.29
2022-10-03T12:15:03.279Z,15.50
2022-10-03T12:25:03.359Z,15.49
2022-10-03T12:35:03.314Z,15.55
2022-10-03T12:45:03.310Z,15.77
2022-10-03T12:55:03.323Z,15.79
2022-10-03T13:05:03.413Z,15.67
2022-10-03T13:15:03.300Z,16.07
2022-10-03T13:25:03.350Z,16.13
2022-10-03T13:35:03.309Z,16.42
2022-10-03T13:45:03.433Z,16.42
2022-10-03T13:55:03.348Z,15.83
2022-10-03T14:05:03.335Z,16.18
2022-10-03T14:15:03.391Z,16.23
2022-10-03T14:25:03.485Z,16.23
2022-10-03T14:35:03.523Z,15.52
2022-10-03T14:45:03.535Z,16.27
2022-10-03T14:55:03.436Z,16.37
2022-10-03T15:05:03.369Z,15.71
2022-10-03T15:15:03.449Z,15.45
2022-10-03T15:25:03.319Z,15.30
2022-10-03T15:35:03.355Z,15.18
2022-10-03T15:45:03.430Z,15.09
2022-10-03T15:55:11.599Z,14.99
2022-10-03T16:05:03.532Z,14.90
2022-10-03T16:15:03.425Z,14.75
2022-10-03T16:25:03.391Z,14.59
2022-10-03T16:35:03.426Z,14.36
2022-10-03T16:45:03.577Z,14.33
2022-10-03T16:55:03.378Z,14.20
2022-10-03T17:05:03.445Z,14.16
2022-10-03T17:15:03.519Z,14.03
2022-10-03T17:25:03.477Z,14.02
2022-10-03T17:35:03.437Z,13.93
2022-10-03T17:45:03.498Z,13.86
2022-10-03T17:55:03.591Z,13.69
2022-10-03T18:05:03.642Z,13.65
2022-10-03T18:15:03.699Z,13.61
2022-10-03T18:25:03.573Z,13.35
2022-10-03T18:35:03.633Z,13.05
2022-10-03T18:45:03.581Z,12.77
2022-10-03T18:55:03.597Z,12.56
2022-10-03T19:05:03.682Z,12.38
2022-10-03T19:15:03.835Z,12.13
